sensor_id;sensor_type;location;lat;lon;timestamp;P1;durP1;ratioP1;P2;durP2;ratioP2
15281;SDS011;7742;44.320;19.820;2023-09-19T00:41:59;28.42;;;26.55;;
15281;SDS011;7742;44.320;19.820;2023-09-19T00:44:30;27.60;;;25.70;;
15281;SDS011;7742;44.320;19.820;2023-09-19T00:46:59;27.67;;;25.88;;
15281;SDS011;7742;44.320;19.820;2023-09-19T00:49:27;26.10;;;24.42;;
15281;SDS011;7742;44.320;19.820;2023-09-19T00:51:56;27.02;;;25.33;;
15281;SDS011;7742;44.320;19.820;2023-09-19T00:54:23;26.27;;;24.63;;
15281;SDS011;7742;44.320;19.820;2023-09-19T00:59:21;26.23;;;24.43;;
15281;SDS011;7742;44.320;19.820;2023-09-19T01:01:49;24.25;;;22.65;;
15281;SDS011;7742;44.320;19.820;2023-09-19T01:04:19;24.77;;;23.17;;
15281;SDS011;7742;44.320;19.820;2023-09-19T01:06:46;24.30;;;22.48;;
15281;SDS011;7742;44.320;19.820;2023-09-19T01:09:18;22.33;;;20.93;;
15281;SDS011;7742;44.320;19.820;2023-09-19T01:11:45;24.30;;;22.67;;
15281;SDS011;7742;44.320;19.820;2023-09-19T01:14:15;25.57;;;24.03;;
15281;SDS011;7742;44.320;19.820;2023-09-19T01:16:53;26.73;;;25.00;;
15281;SDS011;7742;44.320;19.820;2023-09-19T01:19:32;26.65;;;24.95;;
15281;SDS011;7742;44.320;19.820;2023-09-19T01:37:45;25.65;;;23.90;;
15281;SDS011;7742;44.320;19.820;2023-09-19T01:40:27;26.40;;;24.70;;
15281;SDS011;7742;44.320;19.820;2023-09-19T01:43:05;24.97;;;23.17;;
15281;SDS011;7742;44.320;19.820;2023-09-19T01:45:43;26.40;;;24.70;;
15281;SDS011;7742;44.320;19.820;2023-09-19T01:48:16;25.00;;;23.20;;
15281;SDS011;7742;44.320;19.820;2023-09-19T01:50:47;26.38;;;24.67;;
15281;SDS011;7742;44.320;19.820;2023-09-19T01:53:22;25.20;;;23.50;;
15281;SDS011;7742;44.320;19.820;2023-09-19T01:55:50;26.27;;;24.63;;
15281;SDS011;7742;44.320;19.820;2023-09-19T01:58:20;26.10;;;24.10;;
15281;SDS011;7742;44.320;19.820;2023-09-19T02:00:51;25.37;;;23.67;;
15281;SDS011;7742;44.320;19.820;2023-09-19T02:03:33;26.20;;;24.23;;
15281;SDS011;7742;44.320;19.820;2023-09-19T02:06:02;25.70;;;23.98;;
15281;SDS011;7742;44.320;19.820;2023-09-19T02:08:44;25.97;;;24.07;;
15281;SDS011;7742;44.320;19.820;2023-09-19T02:11:17;25.98;;;24.27;;
15281;SDS011;7742;44.320;19.820;2023-09-19T02:13:46;25.83;;;23.90;;
15281;SDS011;7742;44.320;19.820;2023-09-19T02:16:13;26.65;;;24.77;;
15281;SDS011;7742;44.320;19.820;2023-09-19T02:21:48;24.87;;;23.27;;
15281;SDS011;7742;44.320;19.820;2023-09-19T02:24:16;25.90;;;24.00;;
15281;SDS011;7742;44.320;19.820;2023-09-19T02:26:44;25.67;;;23.87;;
15281;SDS011;7742;44.320;19.820;2023-09-19T02:29:11;26.55;;;24.75;;
15281;SDS011;7742;44.320;19.820;2023-09-19T02:31:38;26.27;;;24.43;;
15281;SDS011;7742;44.320;19.820;2023-09-19T02:34:05;26.45;;;24.75;;
15281;SDS011;7742;44.320;19.820;2023-09-19T02:36:34;26.60;;;24.90;;
15281;SDS011;7742;44.320;19.820;2023-09-19T02:41:57;26.97;;;25.00;;
15281;SDS011;7742;44.320;19.820;2023-09-19T02:44:24;26.30;;;24.60;;
15281;SDS011;7742;44.320;19.820;2023-09-19T02:46:52;26.30;;;24.63;;
15281;SDS011;7742;44.320;19.820;2023-09-19T02:49:19;26.53;;;24.67;;
15281;SDS011;7742;44.320;19.820;2023-09-19T02:51:46;26.67;;;24.87;;
15281;SDS011;7742;44.320;19.820;2023-09-19T02:54:13;27.60;;;25.80;;
15281;SDS011;7742;44.320;19.820;2023-09-19T02:56:41;26.87;;;25.17;;
15281;SDS011;7742;44.320;19.820;2023-09-19T02:59:09;28.13;;;26.13;;
15281;SDS011;7742;44.320;19.820;2023-09-19T03:01:36;26.20;;;24.30;;
15281;SDS011;7742;44.320;19.820;2023-09-19T03:04:04;26.90;;;25.20;;
15281;SDS011;7742;44.320;19.820;2023-09-19T03:09:25;26.42;;;24.60;;
15281;SDS011;7742;44.320;19.820;2023-09-19T03:14:54;26.65;;;24.85;;
15281;SDS011;7742;44.320;19.820;2023-09-19T03:17:22;24.03;;;22.43;;
15281;SDS011;7742;44.320;19.820;2023-09-19T03:19:49;27.05;;;24.98;;
15281;SDS011;7742;44.320;19.820;2023-09-19T03:22:15;25.73;;;23.93;;
15281;SDS011;7742;44.320;19.820;2023-09-19T03:24:43;27.65;;;25.85;;
15281;SDS011;7742;44.320;19.820;2023-09-19T03:27:11;25.80;;;24.10;;
15281;SDS011;7742;44.320;19.820;2023-09-19T03:29:41;27.73;;;25.92;;
15281;SDS011;7742;44.320;19.820;2023-09-19T03:32:09;27.00;;;25.00;;
15281;SDS011;7742;44.320;19.820;2023-09-19T03:34:37;28.63;;;26.77;;
15281;SDS011;7742;44.320;19.820;2023-09-19T03:37:07;26.70;;;25.00;;
15281;SDS011;7742;44.320;19.820;2023-09-19T03:42:49;25.63;;;23.83;;
15281;SDS011;7742;44.320;19.820;2023-09-19T03:45:16;26.65;;;24.85;;
15281;SDS011;7742;44.320;19.820;2023-09-19T03:47:45;25.30;;;23.40;;
15281;SDS011;7742;44.320;19.820;2023-09-19T03:50:13;29.30;;;27.20;;
15281;SDS011;7742;44.320;19.820;2023-09-19T03:52:43;28.13;;;26.23;;
15281;SDS011;7742;44.320;19.820;2023-09-19T03:55:09;27.80;;;25.90;;
15281;SDS011;7742;44.320;19.820;2023-09-19T03:57:36;26.47;;;24.57;;
15281;SDS011;7742;44.320;19.820;2023-09-19T04:00:04;26.03;;;24.13;;
15281;SDS011;7742;44.320;19.820;2023-09-19T04:02:31;26.03;;;24.10;;
15281;SDS011;7742;44.320;19.820;2023-09-19T04:05:01;26.75;;;24.85;;
15281;SDS011;7742;44.320;19.820;2023-09-19T04:07:32;23.27;;;21.87;;
15281;SDS011;7742;44.320;19.820;2023-09-19T04:10:03;25.20;;;23.52;;
15281;SDS011;7742;44.320;19.820;2023-09-19T04:12:30;25.00;;;23.60;;
15281;SDS011;7742;44.320;19.820;2023-09-19T04:14:57;23.83;;;22.13;;
15281;SDS011;7742;44.320;19.820;2023-09-19T04:17:25;26.00;;;24.40;;
15281;SDS011;7742;44.320;19.820;2023-09-19T04:19:52;26.65;;;24.75;;
15281;SDS011;7742;44.320;19.820;2023-09-19T04:22:21;26.03;;;24.10;;
15281;SDS011;7742;44.320;19.820;2023-09-19T04:24:50;24.43;;;22.33;;
15281;SDS011;7742;44.320;19.820;2023-09-19T04:27:17;25.70;;;23.80;;
15281;SDS011;7742;44.320;19.820;2023-09-19T04:29:44;25.17;;;23.07;;
15281;SDS011;7742;44.320;19.820;2023-09-19T04:32:11;24.08;;;22.45;;
15281;SDS011;7742;44.320;19.820;2023-09-19T04:34:38;24.50;;;22.57;;
15281;SDS011;7742;44.320;19.820;2023-09-19T04:37:05;25.75;;;23.88;;
15281;SDS011;7742;44.320;19.820;2023-09-19T04:39:33;26.02;;;24.27;;
15281;SDS011;7742;44.320;19.820;2023-09-19T04:42:00;23.53;;;21.93;;
15281;SDS011;7742;44.320;19.820;2023-09-19T04:44:28;24.03;;;22.13;;
15281;SDS011;7742;44.320;19.820;2023-09-19T04:46:55;24.07;;;22.37;;
15281;SDS011;7742;44.320;19.820;2023-09-19T04:49:22;26.17;;;24.27;;
15281;SDS011;7742;44.320;19.820;2023-09-19T04:51:48;25.00;;;23.23;;
15281;SDS011;7742;44.320;19.820;2023-09-19T04:54:15;25.58;;;23.77;;
15281;SDS011;7742;44.320;19.820;2023-09-19T04:56:44;30.07;;;27.90;;
15281;SDS011;7742;44.320;19.820;2023-09-19T04:59:11;26.65;;;24.65;;
15281;SDS011;7742;44.320;19.820;2023-09-19T05:01:40;25.57;;;23.57;;
15281;SDS011;7742;44.320;19.820;2023-09-19T05:04:06;25.20;;;23.50;;
15281;SDS011;7742;44.320;19.820;2023-09-19T05:06:33;24.50;;;22.87;;
15281;SDS011;7742;44.320;19.820;2023-09-19T05:09:01;26.00;;;24.30;;
15281;SDS011;7742;44.320;19.820;2023-09-19T05:11:30;26.07;;;24.27;;
15281;SDS011;7742;44.320;19.820;2023-09-19T05:13:59;26.27;;;24.27;;
15281;SDS011;7742;44.320;19.820;2023-09-19T05:16:29;28.10;;;26.23;;
15281;SDS011;7742;44.320;19.820;2023-09-19T05:18:56;28.10;;;25.93;;
15281;SDS011;7742;44.320;19.820;2023-09-19T05:21:25;28.60;;;26.80;;
15281;SDS011;7742;44.320;19.820;2023-09-19T05:23:54;28.27;;;26.10;;
15281;SDS011;7742;44.320;19.820;2023-09-19T05:26:21;27.23;;;25.33;;
15281;SDS011;7742;44.320;19.820;2023-09-19T05:28:48;27.43;;;25.53;;
15281;SDS011;7742;44.320;19.820;2023-09-19T05:31:29;28.40;;;26.60;;
15281;SDS011;7742;44.320;19.820;2023-09-19T05:33:57;28.70;;;26.60;;
15281;SDS011;7742;44.320;19.820;2023-09-19T05:36:26;29.80;;;27.70;;
15281;SDS011;7742;44.320;19.820;2023-09-19T05:38:54;29.73;;;27.77;;
15281;SDS011;7742;44.320;19.820;2023-09-19T05:41:21;30.10;;;28.00;;
15281;SDS011;7742;44.320;19.820;2023-09-19T05:43:49;29.60;;;27.50;;
15281;SDS011;7742;44.320;19.820;2023-09-19T05:46:16;35.27;;;32.87;;
15281;SDS011;7742;44.320;19.820;2023-09-19T05:48:45;30.97;;;28.77;;
15281;SDS011;7742;44.320;19.820;2023-09-19T05:51:15;28.23;;;26.03;;
15281;SDS011;7742;44.320;19.820;2023-09-19T05:53:43;25.83;;;23.70;;
15281;SDS011;7742;44.320;19.820;2023-09-19T05:56:10;25.97;;;23.97;;
15281;SDS011;7742;44.320;19.820;2023-09-19T05:58:37;25.13;;;23.27;;
15281;SDS011;7742;44.320;19.820;2023-09-19T06:01:04;26.93;;;25.03;;
15281;SDS011;7742;44.320;19.820;2023-09-19T06:03:32;25.70;;;23.40;;
15281;SDS011;7742;44.320;19.820;2023-09-19T06:06:02;27.17;;;25.07;;
15281;SDS011;7742;44.320;19.820;2023-09-19T06:08:29;26.07;;;23.67;;
15281;SDS011;7742;44.320;19.820;2023-09-19T06:10:56;25.23;;;23.13;;
15281;SDS011;7742;44.320;19.820;2023-09-19T06:13:23;24.10;;;22.07;;
15281;SDS011;7742;44.320;19.820;2023-09-19T06:15:51;23.87;;;22.03;;
15281;SDS011;7742;44.320;19.820;2023-09-19T06:18:19;25.20;;;23.00;;
15281;SDS011;7742;44.320;19.820;2023-09-19T06:20:46;25.40;;;22.80;;
15281;SDS011;7742;44.320;19.820;2023-09-19T06:23:15;23.80;;;20.02;;
15281;SDS011;7742;44.320;19.820;2023-09-19T06:25:42;23.13;;;20.77;;
15281;SDS011;7742;44.320;19.820;2023-09-19T06:28:09;23.48;;;21.27;;
15281;SDS011;7742;44.320;19.820;2023-09-19T06:30:37;24.02;;;21.33;;
15281;SDS011;7742;44.320;19.820;2023-09-19T06:33:05;25.70;;;20.17;;
15281;SDS011;7742;44.320;19.820;2023-09-19T06:35:33;21.88;;;19.70;;
15281;SDS011;7742;44.320;19.820;2023-09-19T06:38:02;21.20;;;19.25;;
15281;SDS011;7742;44.320;19.820;2023-09-19T06:40:30;21.63;;;19.38;;
15281;SDS011;7742;44.320;19.820;2023-09-19T06:42:57;23.83;;;20.90;;
15281;SDS011;7742;44.320;19.820;2023-09-19T06:45:27;21.90;;;19.67;;
15281;SDS011;7742;44.320;19.820;2023-09-19T06:47:54;21.25;;;19.27;;
15281;SDS011;7742;44.320;19.820;2023-09-19T06:50:23;20.33;;;18.33;;
15281;SDS011;7742;44.320;19.820;2023-09-19T06:52:50;21.45;;;19.38;;
15281;SDS011;7742;44.320;19.820;2023-09-19T06:55:19;22.02;;;20.05;;
15281;SDS011;7742;44.320;19.820;2023-09-19T06:57:47;20.77;;;18.50;;
15281;SDS011;7742;44.320;19.820;2023-09-19T07:00:15;22.63;;;20.42;;
15281;SDS011;7742;44.320;19.820;2023-09-19T07:02:43;22.77;;;20.33;;
15281;SDS011;7742;44.320;19.820;2023-09-19T07:05:10;22.65;;;20.63;;
15281;SDS011;7742;44.320;19.820;2023-09-19T07:07:37;21.58;;;19.58;;
15281;SDS011;7742;44.320;19.820;2023-09-19T07:10:05;23.38;;;20.98;;
15281;SDS011;7742;44.320;19.820;2023-09-19T07:12:33;22.63;;;20.35;;
15281;SDS011;7742;44.320;19.820;2023-09-19T07:15:02;21.80;;;19.52;;
15281;SDS011;7742;44.320;19.820;2023-09-19T07:17:31;22.08;;;20.38;;
15281;SDS011;7742;44.320;19.820;2023-09-19T07:19:58;23.25;;;20.80;;
15281;SDS011;7742;44.320;19.820;2023-09-19T07:22:25;22.60;;;20.52;;
15281;SDS011;7742;44.320;19.820;2023-09-19T07:24:55;21.80;;;19.67;;
15281;SDS011;7742;44.320;19.820;2023-09-19T07:27:28;21.00;;;19.15;;
15281;SDS011;7742;44.320;19.820;2023-09-19T07:29:55;21.60;;;19.73;;
15281;SDS011;7742;44.320;19.820;2023-09-19T07:32:24;25.55;;;23.50;;
15281;SDS011;7742;44.320;19.820;2023-09-19T07:34:51;25.20;;;23.05;;
15281;SDS011;7742;44.320;19.820;2023-09-19T07:37:20;25.73;;;23.73;;
15281;SDS011;7742;44.320;19.820;2023-09-19T07:39:47;25.05;;;23.17;;
15281;SDS011;7742;44.320;19.820;2023-09-19T07:42:14;23.42;;;21.02;;
15281;SDS011;7742;44.320;19.820;2023-09-19T07:44:43;24.25;;;22.08;;
15281;SDS011;7742;44.320;19.820;2023-09-19T07:47:12;26.02;;;23.95;;
15281;SDS011;7742;44.320;19.820;2023-09-19T07:49:40;25.05;;;22.63;;
15281;SDS011;7742;44.320;19.820;2023-09-19T07:52:08;25.08;;;22.77;;
15281;SDS011;7742;44.320;19.820;2023-09-19T07:54:36;23.75;;;21.83;;
15281;SDS011;7742;44.320;19.820;2023-09-19T07:57:04;27.10;;;24.70;;
15281;SDS011;7742;44.320;19.820;2023-09-19T07:59:31;23.55;;;21.52;;
15281;SDS011;7742;44.320;19.820;2023-09-19T08:01:58;21.58;;;20.08;;
15281;SDS011;7742;44.320;19.820;2023-09-19T08:04:26;22.73;;;20.80;;
15281;SDS011;7742;44.320;19.820;2023-09-19T08:06:54;22.45;;;20.55;;
15281;SDS011;7742;44.320;19.820;2023-09-19T08:09:23;24.63;;;22.42;;
15281;SDS011;7742;44.320;19.820;2023-09-19T08:11:50;24.45;;;22.35;;
15281;SDS011;7742;44.320;19.820;2023-09-19T08:14:17;25.45;;;23.30;;
15281;SDS011;7742;44.320;19.820;2023-09-19T08:16:44;25.65;;;23.27;;
15281;SDS011;7742;44.320;19.820;2023-09-19T08:19:12;23.42;;;21.38;;
15281;SDS011;7742;44.320;19.820;2023-09-19T08:21:40;23.98;;;22.08;;
15281;SDS011;7742;44.320;19.820;2023-09-19T08:24:12;23.90;;;21.45;;
15281;SDS011;7742;44.320;19.820;2023-09-19T08:26:40;24.67;;;22.50;;
15281;SDS011;7742;44.320;19.820;2023-09-19T08:29:10;22.27;;;20.38;;
15281;SDS011;7742;44.320;19.820;2023-09-19T08:31:38;23.15;;;21.00;;
15281;SDS011;7742;44.320;19.820;2023-09-19T08:34:05;21.23;;;19.00;;
15281;SDS011;7742;44.320;19.820;2023-09-19T08:36:32;23.45;;;21.35;;
15281;SDS011;7742;44.320;19.820;2023-09-19T08:38:58;22.17;;;20.40;;
15281;SDS011;7742;44.320;19.820;2023-09-19T08:41:27;22.58;;;20.40;;
15281;SDS011;7742;44.320;19.820;2023-09-19T08:43:54;21.63;;;19.83;;
15281;SDS011;7742;44.320;19.820;2023-09-19T08:46:21;21.20;;;19.48;;
15281;SDS011;7742;44.320;19.820;2023-09-19T08:48:53;21.55;;;19.55;;
15281;SDS011;7742;44.320;19.820;2023-09-19T08:51:22;22.75;;;20.63;;
15281;SDS011;7742;44.320;19.820;2023-09-19T08:53:56;22.40;;;20.20;;
15281;SDS011;7742;44.320;19.820;2023-09-19T08:56:27;22.98;;;21.08;;
15281;SDS011;7742;44.320;19.820;2023-09-19T08:58:57;20.75;;;18.65;;
15281;SDS011;7742;44.320;19.820;2023-09-19T09:01:25;20.00;;;17.92;;
15281;SDS011;7742;44.320;19.820;2023-09-19T09:03:54;19.02;;;17.45;;
15281;SDS011;7742;44.320;19.820;2023-09-19T09:06:21;19.35;;;17.35;;
15281;SDS011;7742;44.320;19.820;2023-09-19T09:08:49;19.95;;;17.48;;
15281;SDS011;7742;44.320;19.820;2023-09-19T09:11:16;24.92;;;19.30;;
15281;SDS011;7742;44.320;19.820;2023-09-19T09:13:45;18.85;;;17.10;;
15281;SDS011;7742;44.320;19.820;2023-09-19T09:16:12;19.65;;;17.58;;
15281;SDS011;7742;44.320;19.820;2023-09-19T09:18:39;21.40;;;19.30;;
15281;SDS011;7742;44.320;19.820;2023-09-19T09:21:06;21.95;;;19.80;;
15281;SDS011;7742;44.320;19.820;2023-09-19T09:23:33;23.38;;;20.98;;
15281;SDS011;7742;44.320;19.820;2023-09-19T09:26:00;22.05;;;19.95;;
15281;SDS011;7742;44.320;19.820;2023-09-19T09:28:30;19.95;;;18.08;;
15281;SDS011;7742;44.320;19.820;2023-09-19T09:31:00;22.75;;;20.58;;
15281;SDS011;7742;44.320;19.820;2023-09-19T09:33:28;20.40;;;18.48;;
15281;SDS011;7742;44.320;19.820;2023-09-19T09:35:56;21.08;;;19.00;;
15281;SDS011;7742;44.320;19.820;2023-09-19T09:38:24;23.35;;;21.13;;
15281;SDS011;7742;44.320;19.820;2023-09-19T09:40:53;22.90;;;21.00;;
15281;SDS011;7742;44.320;19.820;2023-09-19T09:43:25;22.38;;;20.23;;
15281;SDS011;7742;44.320;19.820;2023-09-19T09:46:07;21.52;;;19.33;;
15281;SDS011;7742;44.320;19.820;2023-09-19T09:48:58;21.17;;;19.27;;
15281;SDS011;7742;44.320;19.820;2023-09-19T09:51:43;22.05;;;19.52;;
15281;SDS011;7742;44.320;19.820;2023-09-19T09:54:12;20.90;;;18.80;;
15281;SDS011;7742;44.320;19.820;2023-09-19T09:56:53;22.30;;;19.02;;
15281;SDS011;7742;44.320;19.820;2023-09-19T10:02:13;23.90;;;18.08;;
15281;SDS011;7742;44.320;19.820;2023-09-19T10:04:45;22.92;;;18.40;;
15281;SDS011;7742;44.320;19.820;2023-09-19T10:07:27;24.42;;;21.92;;
15281;SDS011;7742;44.320;19.820;2023-09-19T10:09:57;25.27;;;22.88;;
15281;SDS011;7742;44.320;19.820;2023-09-19T10:12:29;22.63;;;20.38;;
15281;SDS011;7742;44.320;19.820;2023-09-19T10:14:58;22.92;;;20.95;;
15281;SDS011;7742;44.320;19.820;2023-09-19T10:17:29;26.27;;;21.13;;
15281;SDS011;7742;44.320;19.820;2023-09-19T10:19:57;23.27;;;20.92;;
15281;SDS011;7742;44.320;19.820;2023-09-19T10:22:30;27.33;;;19.45;;
15281;SDS011;7742;44.320;19.820;2023-09-19T10:24:58;24.52;;;22.00;;
15281;SDS011;7742;44.320;19.820;2023-09-19T10:27:26;29.80;;;21.35;;
15281;SDS011;7742;44.320;19.820;2023-09-19T10:29:54;25.05;;;20.67;;
15281;SDS011;7742;44.320;19.820;2023-09-19T10:32:24;23.10;;;18.50;;
15281;SDS011;7742;44.320;19.820;2023-09-19T10:34:53;24.30;;;18.98;;
15281;SDS011;7742;44.320;19.820;2023-09-19T10:37:22;23.40;;;19.33;;
15281;SDS011;7742;44.320;19.820;2023-09-19T10:39:53;26.38;;;20.00;;
15281;SDS011;7742;44.320;19.820;2023-09-19T10:42:21;26.27;;;20.50;;
15281;SDS011;7742;44.320;19.820;2023-09-19T10:44:51;26.58;;;20.90;;
15281;SDS011;7742;44.320;19.820;2023-09-19T10:47:19;25.50;;;20.02;;
15281;SDS011;7742;44.320;19.820;2023-09-19T10:49:49;21.90;;;16.88;;
15281;SDS011;7742;44.320;19.820;2023-09-19T10:52:21;23.25;;;17.92;;
15281;SDS011;7742;44.320;19.820;2023-09-19T10:54:50;25.23;;;17.13;;
15281;SDS011;7742;44.320;19.820;2023-09-19T10:57:20;17.70;;;15.85;;
15281;SDS011;7742;44.320;19.820;2023-09-19T11:00:00;19.85;;;17.45;;
15281;SDS011;7742;44.320;19.820;2023-09-19T11:05:32;23.05;;;20.65;;
15281;SDS011;7742;44.320;19.820;2023-09-19T11:08:00;24.95;;;21.83;;
15281;SDS011;7742;44.320;19.820;2023-09-19T11:10:44;23.02;;;20.98;;
15281;SDS011;7742;44.320;19.820;2023-09-19T11:13:23;23.88;;;21.42;;
15281;SDS011;7742;44.320;19.820;2023-09-19T11:18:56;22.67;;;19.33;;
15281;SDS011;7742;44.320;19.820;2023-09-19T11:21:39;21.23;;;19.23;;
15281;SDS011;7742;44.320;19.820;2023-09-19T11:27:08;25.20;;;20.13;;
15281;SDS011;7742;44.320;19.820;2023-09-19T11:29:39;26.45;;;23.85;;
15281;SDS011;7742;44.320;19.820;2023-09-19T11:32:07;25.35;;;22.70;;
15281;SDS011;7742;44.320;19.820;2023-09-19T11:34:45;23.67;;;20.95;;
15281;SDS011;7742;44.320;19.820;2023-09-19T11:40:05;22.35;;;20.40;;
15281;SDS011;7742;44.320;19.820;2023-09-19T11:42:42;23.73;;;21.50;;
15281;SDS011;7742;44.320;19.820;2023-09-19T11:47:58;23.80;;;20.30;;
15281;SDS011;7742;44.320;19.820;2023-09-19T11:50:25;22.58;;;20.42;;
15281;SDS011;7742;44.320;19.820;2023-09-19T11:52:53;22.90;;;20.55;;
15281;SDS011;7742;44.320;19.820;2023-09-19T11:55:20;25.10;;;20.95;;
15281;SDS011;7742;44.320;19.820;2023-09-19T11:57:49;26.42;;;20.88;;
15281;SDS011;7742;44.320;19.820;2023-09-19T12:00:18;25.83;;;20.30;;
15281;SDS011;7742;44.320;19.820;2023-09-19T12:02:46;25.33;;;22.70;;
15281;SDS011;7742;44.320;19.820;2023-09-19T12:05:15;25.20;;;19.92;;
15281;SDS011;7742;44.320;19.820;2023-09-19T12:07:42;24.08;;;21.67;;
15281;SDS011;7742;44.320;19.820;2023-09-19T12:10:17;24.10;;;19.58;;
15281;SDS011;7742;44.320;19.820;2023-09-19T12:12:50;23.77;;;19.57;;
15281;SDS011;7742;44.320;19.820;2023-09-19T12:15:22;20.33;;;18.43;;
15281;SDS011;7742;44.320;19.820;2023-09-19T12:17:51;21.13;;;19.03;;
15281;SDS011;7742;44.320;19.820;2023-09-19T12:20:20;20.43;;;18.30;;
15281;SDS011;7742;44.320;19.820;2023-09-19T12:22:47;20.60;;;18.65;;
15281;SDS011;7742;44.320;19.820;2023-09-19T12:25:15;24.60;;;22.17;;
15281;SDS011;7742;44.320;19.820;2023-09-19T12:27:42;24.83;;;22.02;;
15281;SDS011;7742;44.320;19.820;2023-09-19T12:30:17;24.05;;;21.73;;
15281;SDS011;7742;44.320;19.820;2023-09-19T12:32:44;23.08;;;20.67;;
15281;SDS011;7742;44.320;19.820;2023-09-19T12:35:26;23.30;;;21.08;;
15281;SDS011;7742;44.320;19.820;2023-09-19T12:37:53;23.40;;;21.42;;
15281;SDS011;7742;44.320;19.820;2023-09-19T12:40:21;21.10;;;19.00;;
15281;SDS011;7742;44.320;19.820;2023-09-19T12:42:53;22.73;;;20.45;;
15281;SDS011;7742;44.320;19.820;2023-09-19T12:45:22;21.42;;;19.30;;
15281;SDS011;7742;44.320;19.820;2023-09-19T12:50:34;24.38;;;22.08;;
15281;SDS011;7742;44.320;19.820;2023-09-19T12:53:04;21.13;;;19.15;;
15281;SDS011;7742;44.320;19.820;2023-09-19T12:55:31;23.33;;;21.10;;
15281;SDS011;7742;44.320;19.820;2023-09-19T12:58:08;22.35;;;20.15;;
15281;SDS011;7742;44.320;19.820;2023-09-19T13:00:39;22.58;;;20.55;;
15281;SDS011;7742;44.320;19.820;2023-09-19T13:03:14;22.00;;;19.52;;
15281;SDS011;7742;44.320;19.820;2023-09-19T13:05:53;21.38;;;19.20;;
15281;SDS011;7742;44.320;19.820;2023-09-19T13:08:21;22.03;;;19.80;;
15281;SDS011;7742;44.320;19.820;2023-09-19T13:11:04;21.02;;;18.90;;
15281;SDS011;7742;44.320;19.820;2023-09-19T13:13:35;20.67;;;18.50;;
15281;SDS011;7742;44.320;19.820;2023-09-19T13:16:06;20.65;;;18.55;;
15281;SDS011;7742;44.320;19.820;2023-09-19T13:18:45;19.88;;;17.80;;
15281;SDS011;7742;44.320;19.820;2023-09-19T13:21:15;19.95;;;18.13;;
15281;SDS011;7742;44.320;19.820;2023-09-19T13:23:49;20.77;;;18.75;;
15281;SDS011;7742;44.320;19.820;2023-09-19T13:26:18;20.73;;;18.73;;
15281;SDS011;7742;44.320;19.820;2023-09-19T13:28:47;21.10;;;18.92;;
15281;SDS011;7742;44.320;19.820;2023-09-19T13:31:16;20.73;;;18.50;;
15281;SDS011;7742;44.320;19.820;2023-09-19T13:33:46;22.90;;;20.88;;
15281;SDS011;7742;44.320;19.820;2023-09-19T13:36:14;21.50;;;19.48;;
15281;SDS011;7742;44.320;19.820;2023-09-19T13:38:41;19.67;;;17.63;;
15281;SDS011;7742;44.320;19.820;2023-09-19T13:41:09;22.97;;;18.70;;
15281;SDS011;7742;44.320;19.820;2023-09-19T13:43:37;26.92;;;19.55;;
15281;SDS011;7742;44.320;19.820;2023-09-19T13:46:04;40.53;;;22.97;;
15281;SDS011;7742;44.320;19.820;2023-09-19T13:48:39;30.90;;;24.90;;
15281;SDS011;7742;44.320;19.820;2023-09-19T13:51:18;35.80;;;26.83;;
15281;SDS011;7742;44.320;19.820;2023-09-19T13:53:46;31.13;;;25.43;;
15281;SDS011;7742;44.320;19.820;2023-09-19T13:56:14;29.63;;;26.73;;
15281;SDS011;7742;44.320;19.820;2023-09-19T13:58:45;32.10;;;25.93;;
15281;SDS011;7742;44.320;19.820;2023-09-19T14:01:12;29.13;;;26.03;;
15281;SDS011;7742;44.320;19.820;2023-09-19T14:03:45;31.80;;;26.40;;
15281;SDS011;7742;44.320;19.820;2023-09-19T14:06:15;28.77;;;25.63;;
15281;SDS011;7742;44.320;19.820;2023-09-19T14:08:46;27.93;;;25.03;;
15281;SDS011;7742;44.320;19.820;2023-09-19T14:11:16;26.10;;;23.43;;
15281;SDS011;7742;44.320;19.820;2023-09-19T15:01:04;21.30;;;19.27;;
15281;SDS011;7742;44.320;19.820;2023-09-19T15:03:32;20.20;;;18.33;;
15281;SDS011;7742;44.320;19.820;2023-09-19T15:06:01;20.40;;;18.83;;
15281;SDS011;7742;44.320;19.820;2023-09-19T15:08:29;19.67;;;17.97;;
15281;SDS011;7742;44.320;19.820;2023-09-19T15:10:56;19.80;;;18.10;;
15281;SDS011;7742;44.320;19.820;2023-09-19T15:13:25;19.43;;;17.73;;
15281;SDS011;7742;44.320;19.820;2023-09-19T15:15:58;21.10;;;18.90;;
15281;SDS011;7742;44.320;19.820;2023-09-19T15:18:26;20.13;;;18.23;;
15281;SDS011;7742;44.320;19.820;2023-09-19T15:20:55;20.40;;;18.60;;
15281;SDS011;7742;44.320;19.820;2023-09-19T15:23:22;20.73;;;19.03;;
15281;SDS011;7742;44.320;19.820;2023-09-19T15:25:49;19.53;;;18.03;;
15281;SDS011;7742;44.320;19.820;2023-09-19T15:28:16;21.80;;;19.67;;
15281;SDS011;7742;44.320;19.820;2023-09-19T15:30:43;22.57;;;20.43;;
15281;SDS011;7742;44.320;19.820;2023-09-19T15:33:10;22.43;;;20.27;;
15281;SDS011;7742;44.320;19.820;2023-09-19T15:35:39;22.63;;;20.57;;
15281;SDS011;7742;44.320;19.820;2023-09-19T15:38:06;22.07;;;19.87;;
15281;SDS011;7742;44.320;19.820;2023-09-19T15:40:33;23.60;;;21.40;;
15281;SDS011;7742;44.320;19.820;2023-09-19T15:43:00;23.50;;;21.33;;
15281;SDS011;7742;44.320;19.820;2023-09-19T15:45:27;24.17;;;21.97;;
15281;SDS011;7742;44.320;19.820;2023-09-19T15:47:54;24.57;;;22.27;;
15281;SDS011;7742;44.320;19.820;2023-09-19T15:50:21;24.67;;;22.43;;
15281;SDS011;7742;44.320;19.820;2023-09-19T15:52:51;24.60;;;22.20;;
15281;SDS011;7742;44.320;19.820;2023-09-19T15:55:21;23.60;;;21.60;;
15281;SDS011;7742;44.320;19.820;2023-09-19T15:57:48;23.10;;;20.90;;
15281;SDS011;7742;44.320;19.820;2023-09-19T16:00:15;23.03;;;20.63;;
15281;SDS011;7742;44.320;19.820;2023-09-19T16:02:42;24.13;;;21.77;;
15281;SDS011;7742;44.320;19.820;2023-09-19T16:05:12;23.80;;;21.80;;
15281;SDS011;7742;44.320;19.820;2023-09-19T16:07:38;27.83;;;23.77;;
15281;SDS011;7742;44.320;19.820;2023-09-19T16:10:07;24.73;;;22.73;;
15281;SDS011;7742;44.320;19.820;2023-09-19T16:12:34;26.13;;;23.33;;
15281;SDS011;7742;44.320;19.820;2023-09-19T16:15:03;26.63;;;24.03;;
15281;SDS011;7742;44.320;19.820;2023-09-19T16:17:30;27.03;;;24.60;;
15281;SDS011;7742;44.320;19.820;2023-09-19T16:19:57;27.07;;;24.37;;
15281;SDS011;7742;44.320;19.820;2023-09-19T16:22:24;26.67;;;24.20;;
15281;SDS011;7742;44.320;19.820;2023-09-19T16:24:51;26.17;;;23.63;;
15281;SDS011;7742;44.320;19.820;2023-09-19T16:27:20;26.47;;;23.57;;
15281;SDS011;7742;44.320;19.820;2023-09-19T16:29:47;27.63;;;24.63;;
15281;SDS011;7742;44.320;19.820;2023-09-19T16:32:15;26.33;;;23.83;;
15281;SDS011;7742;44.320;19.820;2023-09-19T16:34:42;25.47;;;23.17;;
15281;SDS011;7742;44.320;19.820;2023-09-19T16:37:09;26.13;;;23.73;;
15281;SDS011;7742;44.320;19.820;2023-09-19T16:39:36;26.93;;;24.37;;
15281;SDS011;7742;44.320;19.820;2023-09-19T16:42:03;26.87;;;24.57;;
15281;SDS011;7742;44.320;19.820;2023-09-19T16:44:32;25.23;;;22.93;;
15281;SDS011;7742;44.320;19.820;2023-09-19T16:46:59;24.83;;;22.60;;
15281;SDS011;7742;44.320;19.820;2023-09-19T16:49:28;25.57;;;23.27;;
15281;SDS011;7742;44.320;19.820;2023-09-19T16:51:55;25.20;;;22.90;;
15281;SDS011;7742;44.320;19.820;2023-09-19T16:54:22;26.33;;;22.77;;